sensor_id;sensor_type;location;lat;lon;timestamp;temperature;humidity
48488;DHT22;34289;48.572;13.378;2022-08-01T00:01:26;18.40;99.90
48488;DHT22;34289;48.572;13.378;2022-08-01T00:03:52;18.30;99.90
48488;DHT22;34289;48.572;13.378;2022-08-01T00:06:18;18.40;99.90
48488;DHT22;34289;48.572;13.378;2022-08-01T00:08:43;18.40;99.90
48488;DHT22;34289;48.572;13.378;2022-08-01T00:11:09;18.40;99.90
48488;DHT22;34289;48.572;13.378;2022-08-01T00:13:35;18.40;99.90
48488;DHT22;34289;48.572;13.378;2022-08-01T00:16:01;18.30;99.90
48488;DHT22;34289;48.572;13.378;2022-08-01T00:18:26;18.20;99.90
48488;DHT22;34289;48.572;13.378;2022-08-01T00:20:52;18.20;99.90
48488;DHT22;34289;48.572;13.378;2022-08-01T00:23:18;18.20;99.90
48488;DHT22;34289;48.572;13.378;2022-08-01T00:25:43;18.20;99.90
48488;DHT22;34289;48.572;13.378;2022-08-01T00:28:09;18.20;99.90
48488;DHT22;34289;48.572;13.378;2022-08-01T00:30:35;18.20;99.90
48488;DHT22;34289;48.572;13.378;2022-08-01T00:33:02;18.30;99.90
48488;DHT22;34289;48.572;13.378;2022-08-01T00:35:27;18.20;99.90
48488;DHT22;34289;48.572;13.378;2022-08-01T00:37:53;18.10;99.90
48488;DHT22;34289;48.572;13.378;2022-08-01T00:40:18;18.00;99.90
48488;DHT22;34289;48.572;13.378;2022-08-01T00:42:44;18.00;99.90
48488;DHT22;34289;48.572;13.378;2022-08-01T00:45:11;18.00;99.90
48488;DHT22;34289;48.572;13.378;2022-08-01T00:47:37;18.00;99.90
48488;DHT22;34289;48.572;13.378;2022-08-01T00:50:06;18.00;99.90
48488;DHT22;34289;48.572;13.378;2022-08-01T00:52:33;18.00;99.90
48488;DHT22;34289;48.572;13.378;2022-08-01T00:54:59;18.00;99.90
48488;DHT22;34289;48.572;13.378;2022-08-01T00:57:32;17.90;99.90
48488;DHT22;34289;48.572;13.378;2022-08-01T00:59:58;18.00;99.90
48488;DHT22;34289;48.572;13.378;2022-08-01T01:02:23;18.00;99.90
48488;DHT22;34289;48.572;13.378;2022-08-01T01:04:49;18.00;99.90
48488;DHT22;34289;48.572;13.378;2022-08-01T01:07:17;18.00;99.90
48488;DHT22;34289;48.572;13.378;2022-08-01T01:10:00;18.00;99.90
48488;DHT22;34289;48.572;13.378;2022-08-01T01:12:47;18.00;99.90
48488;DHT22;34289;48.572;13.378;2022-08-01T01:15:40;18.00;99.90
48488;DHT22;34289;48.572;13.378;2022-08-01T01:18:14;18.00;99.90
48488;DHT22;34289;48.572;13.378;2022-08-01T01:20:43;18.00;99.90
48488;DHT22;34289;48.572;13.378;2022-08-01T01:31:54;17.90;99.90
48488;DHT22;34289;48.572;13.378;2022-08-01T01:34:22;17.90;99.90
48488;DHT22;34289;48.572;13.378;2022-08-01T01:36:50;17.90;99.90
48488;DHT22;34289;48.572;13.378;2022-08-01T01:39:18;17.90;99.90
48488;DHT22;34289;48.572;13.378;2022-08-01T01:41:47;17.90;99.90
48488;DHT22;34289;48.572;13.378;2022-08-01T01:44:15;17.90;99.90
48488;DHT22;34289;48.572;13.378;2022-08-01T01:46:41;17.80;99.90
48488;DHT22;34289;48.572;13.378;2022-08-01T01:49:08;17.90;99.90
48488;DHT22;34289;48.572;13.378;2022-08-01T01:51:38;17.90;99.90
48488;DHT22;34289;48.572;13.378;2022-08-01T01:54:05;17.80;99.90
48488;DHT22;34289;48.572;13.378;2022-08-01T01:56:32;17.80;99.90
48488;DHT22;34289;48.572;13.378;2022-08-01T01:59:02;17.80;99.90
48488;DHT22;34289;48.572;13.378;2022-08-01T02:01:31;17.80;99.90
48488;DHT22;34289;48.572;13.378;2022-08-01T02:03:57;17.70;99.90
48488;DHT22;34289;48.572;13.378;2022-08-01T02:06:26;17.70;99.90
48488;DHT22;34289;48.572;13.378;2022-08-01T02:08:54;17.70;99.90
48488;DHT22;34289;48.572;13.378;2022-08-01T02:11:20;17.70;99.90
48488;DHT22;34289;48.572;13.378;2022-08-01T02:14:00;17.70;99.90
48488;DHT22;34289;48.572;13.378;2022-08-01T02:16:29;17.70;99.90
48488;DHT22;34289;48.572;13.378;2022-08-01T02:18:57;17.70;99.90
48488;DHT22;34289;48.572;13.378;2022-08-01T02:21:50;17.80;99.90
48488;DHT22;34289;48.572;13.378;2022-08-01T02:26:57;17.70;99.90
48488;DHT22;34289;48.572;13.378;2022-08-01T02:29:29;17.70;99.90
48488;DHT22;34289;48.572;13.378;2022-08-01T02:31:58;17.60;99.90
48488;DHT22;34289;48.572;13.378;2022-08-01T02:34:28;17.60;99.90
48488;DHT22;34289;48.572;13.378;2022-08-01T02:36:58;17.60;99.90
48488;DHT22;34289;48.572;13.378;2022-08-01T02:39:26;17.50;99.90
48488;DHT22;34289;48.572;13.378;2022-08-01T02:41:57;17.50;99.90
48488;DHT22;34289;48.572;13.378;2022-08-01T02:44:26;17.50;99.90
48488;DHT22;34289;48.572;13.378;2022-08-01T02:46:59;17.50;99.90
48488;DHT22;34289;48.572;13.378;2022-08-01T02:49:29;17.40;99.90
48488;DHT22;34289;48.572;13.378;2022-08-01T02:51:57;17.50;99.90
48488;DHT22;34289;48.572;13.378;2022-08-01T02:54:25;17.50;99.90
48488;DHT22;34289;48.572;13.378;2022-08-01T02:56:52;17.50;99.90
48488;DHT22;34289;48.572;13.378;2022-08-01T02:59:22;17.40;99.90
48488;DHT22;34289;48.572;13.378;2022-08-01T03:01:53;17.40;99.90
48488;DHT22;34289;48.572;13.378;2022-08-01T03:04:20;17.30;99.90
48488;DHT22;34289;48.572;13.378;2022-08-01T03:06:47;17.30;99.90
48488;DHT22;34289;48.572;13.378;2022-08-01T03:09:14;17.30;99.90
48488;DHT22;34289;48.572;13.378;2022-08-01T03:11:45;17.20;99.90
48488;DHT22;34289;48.572;13.378;2022-08-01T03:14:13;17.20;99.90
48488;DHT22;34289;48.572;13.378;2022-08-01T03:16:42;17.20;99.90
48488;DHT22;34289;48.572;13.378;2022-08-01T03:19:11;17.20;99.90
48488;DHT22;34289;48.572;13.378;2022-08-01T03:21:38;17.10;99.90
48488;DHT22;34289;48.572;13.378;2022-08-01T03:24:05;17.00;99.90
48488;DHT22;34289;48.572;13.378;2022-08-01T03:26:34;17.00;99.90
48488;DHT22;34289;48.572;13.378;2022-08-01T03:29:06;17.00;99.90
48488;DHT22;34289;48.572;13.378;2022-08-01T03:31:36;17.00;99.90
48488;DHT22;34289;48.572;13.378;2022-08-01T03:34:03;17.00;99.90
48488;DHT22;34289;48.572;13.378;2022-08-01T03:36:31;17.00;99.90
48488;DHT22;34289;48.572;13.378;2022-08-01T03:39:00;17.10;99.90
48488;DHT22;34289;48.572;13.378;2022-08-01T03:41:32;17.00;99.90
48488;DHT22;34289;48.572;13.378;2022-08-01T03:44:16;17.00;99.90
48488;DHT22;34289;48.572;13.378;2022-08-01T03:47:00;17.00;99.90
48488;DHT22;34289;48.572;13.378;2022-08-01T03:49:32;17.00;99.90
48488;DHT22;34289;48.572;13.378;2022-08-01T03:52:02;17.10;99.90
48488;DHT22;34289;48.572;13.378;2022-08-01T03:54:33;17.10;99.90
48488;DHT22;34289;48.572;13.378;2022-08-01T03:57:00;17.10;99.90
48488;DHT22;34289;48.572;13.378;2022-08-01T03:59:28;17.00;99.90
48488;DHT22;34289;48.572;13.378;2022-08-01T04:01:55;17.00;99.90
48488;DHT22;34289;48.572;13.378;2022-08-01T04:04:21;17.00;99.90
48488;DHT22;34289;48.572;13.378;2022-08-01T04:06:47;17.00;99.90
48488;DHT22;34289;48.572;13.378;2022-08-01T04:09:16;17.00;99.90
48488;DHT22;34289;48.572;13.378;2022-08-01T04:11:43;17.10;99.90
48488;DHT22;34289;48.572;13.378;2022-08-01T04:14:08;17.10;99.90
48488;DHT22;34289;48.572;13.378;2022-08-01T04:16:34;17.10;99.90
48488;DHT22;34289;48.572;13.378;2022-08-01T04:19:00;17.10;99.90
48488;DHT22;34289;48.572;13.378;2022-08-01T04:21:26;17.10;99.90
48488;DHT22;34289;48.572;13.378;2022-08-01T04:23:58;17.10;99.90
48488;DHT22;34289;48.572;13.378;2022-08-01T04:26:25;17.10;99.90
48488;DHT22;34289;48.572;13.378;2022-08-01T04:28:53;17.10;99.90
48488;DHT22;34289;48.572;13.378;2022-08-01T04:31:21;17.20;99.90
48488;DHT22;34289;48.572;13.378;2022-08-01T04:33:50;17.30;99.90
48488;DHT22;34289;48.572;13.378;2022-08-01T04:36:18;17.20;99.90
48488;DHT22;34289;48.572;13.378;2022-08-01T04:38:46;17.30;99.90
48488;DHT22;34289;48.572;13.378;2022-08-01T04:41:13;17.30;99.90
48488;DHT22;34289;48.572;13.378;2022-08-01T04:43:40;17.40;99.90
48488;DHT22;34289;48.572;13.378;2022-08-01T04:46:07;17.50;99.90
48488;DHT22;34289;48.572;13.378;2022-08-01T04:48:36;17.60;99.90
48488;DHT22;34289;48.572;13.378;2022-08-01T04:51:03;17.60;99.90
48488;DHT22;34289;48.572;13.378;2022-08-01T04:53:29;17.70;99.90
48488;DHT22;34289;48.572;13.378;2022-08-01T04:55:57;17.70;99.90
48488;DHT22;34289;48.572;13.378;2022-08-01T04:58:24;17.70;99.90
48488;DHT22;34289;48.572;13.378;2022-08-01T05:00:50;17.70;99.90
48488;DHT22;34289;48.572;13.378;2022-08-01T05:03:15;17.80;99.90
48488;DHT22;34289;48.572;13.378;2022-08-01T05:05:41;17.80;99.90
48488;DHT22;34289;48.572;13.378;2022-08-01T05:08:07;17.90;99.90
48488;DHT22;34289;48.572;13.378;2022-08-01T05:10:33;17.90;99.90
48488;DHT22;34289;48.572;13.378;2022-08-01T05:12:59;18.00;99.90
48488;DHT22;34289;48.572;13.378;2022-08-01T05:15:25;18.00;99.90
48488;DHT22;34289;48.572;13.378;2022-08-01T05:17:50;18.10;99.90
48488;DHT22;34289;48.572;13.378;2022-08-01T05:20:16;18.20;99.90
48488;DHT22;34289;48.572;13.378;2022-08-01T05:22:42;18.30;99.90
48488;DHT22;34289;48.572;13.378;2022-08-01T05:25:08;18.30;99.90
48488;DHT22;34289;48.572;13.378;2022-08-01T05:27:33;18.40;99.90
48488;DHT22;34289;48.572;13.378;2022-08-01T05:30:06;18.50;99.90
48488;DHT22;34289;48.572;13.378;2022-08-01T05:32:32;18.60;99.90
48488;DHT22;34289;48.572;13.378;2022-08-01T05:34:57;18.70;99.90
48488;DHT22;34289;48.572;13.378;2022-08-01T05:37:26;18.80;99.90
48488;DHT22;34289;48.572;13.378;2022-08-01T05:39:52;18.90;99.90
48488;DHT22;34289;48.572;13.378;2022-08-01T05:42:17;18.90;99.90
48488;DHT22;34289;48.572;13.378;2022-08-01T05:44:43;19.00;99.90
48488;DHT22;34289;48.572;13.378;2022-08-01T05:47:09;19.10;99.90
48488;DHT22;34289;48.572;13.378;2022-08-01T05:49:35;19.30;99.90
48488;DHT22;34289;48.572;13.378;2022-08-01T05:52:00;19.30;99.90
48488;DHT22;34289;48.572;13.378;2022-08-01T05:54:27;19.50;99.90
48488;DHT22;34289;48.572;13.378;2022-08-01T05:56:53;19.60;99.90
48488;DHT22;34289;48.572;13.378;2022-08-01T05:59:19;19.70;99.90
48488;DHT22;34289;48.572;13.378;2022-08-01T06:01:44;19.90;99.90
48488;DHT22;34289;48.572;13.378;2022-08-01T06:04:10;20.00;99.90
48488;DHT22;34289;48.572;13.378;2022-08-01T06:06:35;20.20;99.90
48488;DHT22;34289;48.572;13.378;2022-08-01T06:09:01;20.30;99.90
48488;DHT22;34289;48.572;13.378;2022-08-01T06:11:27;20.40;99.90
48488;DHT22;34289;48.572;13.378;2022-08-01T06:13:52;20.60;99.90
48488;DHT22;34289;48.572;13.378;2022-08-01T06:16:19;20.70;99.90
48488;DHT22;34289;48.572;13.378;2022-08-01T06:18:44;20.80;99.90
48488;DHT22;34289;48.572;13.378;2022-08-01T06:21:10;21.00;99.90
48488;DHT22;34289;48.572;13.378;2022-08-01T06:23:36;21.10;99.90
48488;DHT22;34289;48.572;13.378;2022-08-01T06:26:02;21.20;99.90
48488;DHT22;34289;48.572;13.378;2022-08-01T06:28:28;21.30;99.90
48488;DHT22;34289;48.572;13.378;2022-08-01T06:30:54;21.50;99.90
48488;DHT22;34289;48.572;13.378;2022-08-01T06:33:20;21.80;99.90
48488;DHT22;34289;48.572;13.378;2022-08-01T06:35:46;21.90;99.90
48488;DHT22;34289;48.572;13.378;2022-08-01T06:38:11;21.90;99.90
48488;DHT22;34289;48.572;13.378;2022-08-01T06:40:37;22.00;99.90
48488;DHT22;34289;48.572;13.378;2022-08-01T06:43:03;22.20;99.90
48488;DHT22;34289;48.572;13.378;2022-08-01T06:45:29;22.40;99.90
48488;DHT22;34289;48.572;13.378;2022-08-01T06:47:55;22.40;99.90
48488;DHT22;34289;48.572;13.378;2022-08-01T06:50:21;22.40;99.90
48488;DHT22;34289;48.572;13.378;2022-08-01T06:52:46;22.30;99.90
48488;DHT22;34289;48.572;13.378;2022-08-01T06:55:12;22.40;99.90
48488;DHT22;34289;48.572;13.378;2022-08-01T06:57:50;22.40;99.90
48488;DHT22;34289;48.572;13.378;2022-08-01T07:00:17;22.20;99.90
48488;DHT22;34289;48.572;13.378;2022-08-01T07:02:44;22.10;99.90
48488;DHT22;34289;48.572;13.378;2022-08-01T07:05:10;22.10;99.90
48488;DHT22;34289;48.572;13.378;2022-08-01T07:07:36;22.10;99.90
48488;DHT22;34289;48.572;13.378;2022-08-01T07:10:03;22.10;99.90
48488;DHT22;34289;48.572;13.378;2022-08-01T07:12:29;22.00;99.90
48488;DHT22;34289;48.572;13.378;2022-08-01T07:14:55;22.10;99.90
48488;DHT22;34289;48.572;13.378;2022-08-01T07:17:20;22.20;99.90
48488;DHT22;34289;48.572;13.378;2022-08-01T07:19:46;22.20;99.90
48488;DHT22;34289;48.572;13.378;2022-08-01T07:22:12;22.40;99.90
48488;DHT22;34289;48.572;13.378;2022-08-01T07:24:42;22.40;99.90
48488;DHT22;34289;48.572;13.378;2022-08-01T07:27:08;22.40;99.90
48488;DHT22;34289;48.572;13.378;2022-08-01T07:29:34;22.60;99.90
48488;DHT22;34289;48.572;13.378;2022-08-01T07:31:59;22.90;99.90
48488;DHT22;34289;48.572;13.378;2022-08-01T07:34:25;23.00;99.90
48488;DHT22;34289;48.572;13.378;2022-08-01T07:36:52;23.10;99.90
48488;DHT22;34289;48.572;13.378;2022-08-01T07:39:18;23.00;99.90
48488;DHT22;34289;48.572;13.378;2022-08-01T07:41:44;22.90;99.90
48488;DHT22;34289;48.572;13.378;2022-08-01T07:44:09;22.90;99.90
48488;DHT22;34289;48.572;13.378;2022-08-01T07:46:35;23.00;99.90
48488;DHT22;34289;48.572;13.378;2022-08-01T07:49:01;23.20;99.90
48488;DHT22;34289;48.572;13.378;2022-08-01T07:51:26;23.10;99.90
48488;DHT22;34289;48.572;13.378;2022-08-01T07:53:52;23.20;99.90
48488;DHT22;34289;48.572;13.378;2022-08-01T07:56:18;23.30;99.90
48488;DHT22;34289;48.572;13.378;2022-08-01T07:58:44;23.30;99.90
48488;DHT22;34289;48.572;13.378;2022-08-01T08:01:11;23.60;99.90
48488;DHT22;34289;48.572;13.378;2022-08-01T08:03:37;23.70;99.90
48488;DHT22;34289;48.572;13.378;2022-08-01T08:06:03;23.80;99.90
48488;DHT22;34289;48.572;13.378;2022-08-01T08:08:29;24.00;99.90
48488;DHT22;34289;48.572;13.378;2022-08-01T08:10:55;24.20;99.90
48488;DHT22;34289;48.572;13.378;2022-08-01T08:13:20;24.30;99.90
48488;DHT22;34289;48.572;13.378;2022-08-01T08:15:46;24.30;99.90
48488;DHT22;34289;48.572;13.378;2022-08-01T08:18:12;24.10;99.90
48488;DHT22;34289;48.572;13.378;2022-08-01T08:20:38;24.00;99.90
48488;DHT22;34289;48.572;13.378;2022-08-01T08:23:03;24.00;99.90
48488;DHT22;34289;48.572;13.378;2022-08-01T08:25:49;23.90;99.90
48488;DHT22;34289;48.572;13.378;2022-08-01T08:28:15;24.10;99.90
48488;DHT22;34289;48.572;13.378;2022-08-01T08:30:40;24.30;99.90
48488;DHT22;34289;48.572;13.378;2022-08-01T08:33:06;24.40;99.90
48488;DHT22;34289;48.572;13.378;2022-08-01T08:35:32;24.60;99.90
48488;DHT22;34289;48.572;13.378;2022-08-01T08:37:57;24.80;99.90
48488;DHT22;34289;48.572;13.378;2022-08-01T08:40:26;24.80;99.90
48488;DHT22;34289;48.572;13.378;2022-08-01T08:42:54;25.00;99.90
48488;DHT22;34289;48.572;13.378;2022-08-01T08:45:21;25.20;99.90
48488;DHT22;34289;48.572;13.378;2022-08-01T08:47:47;25.30;99.90
48488;DHT22;34289;48.572;13.378;2022-08-01T08:50:14;25.60;99.90
48488;DHT22;34289;48.572;13.378;2022-08-01T08:52:40;25.80;99.90
48488;DHT22;34289;48.572;13.378;2022-08-01T08:55:08;25.80;99.90
48488;DHT22;34289;48.572;13.378;2022-08-01T08:57:35;25.90;99.90
48488;DHT22;34289;48.572;13.378;2022-08-01T09:00:01;25.90;99.90
48488;DHT22;34289;48.572;13.378;2022-08-01T09:02:27;25.90;99.90
48488;DHT22;34289;48.572;13.378;2022-08-01T09:04:53;25.60;99.90
48488;DHT22;34289;48.572;13.378;2022-08-01T09:07:19;25.60;99.90
48488;DHT22;34289;48.572;13.378;2022-08-01T09:09:44;25.70;99.90
48488;DHT22;34289;48.572;13.378;2022-08-01T09:12:10;25.60;99.90
48488;DHT22;34289;48.572;13.378;2022-08-01T09:14:44;25.70;99.90
48488;DHT22;34289;48.572;13.378;2022-08-01T09:17:10;25.90;99.90
48488;DHT22;34289;48.572;13.378;2022-08-01T09:19:48;26.00;99.90
48488;DHT22;34289;48.572;13.378;2022-08-01T09:22:22;26.10;99.90
48488;DHT22;34289;48.572;13.378;2022-08-01T09:25:09;25.80;99.90
48488;DHT22;34289;48.572;13.378;2022-08-01T09:27:36;25.60;99.90
48488;DHT22;34289;48.572;13.378;2022-08-01T09:30:15;25.70;99.90
48488;DHT22;34289;48.572;13.378;2022-08-01T09:33:01;25.80;99.90
48488;DHT22;34289;48.572;13.378;2022-08-01T09:38:19;26.00;99.90
48488;DHT22;34289;48.572;13.378;2022-08-01T09:40:47;26.20;99.90
48488;DHT22;34289;48.572;13.378;2022-08-01T09:43:13;26.30;99.90
48488;DHT22;34289;48.572;13.378;2022-08-01T09:45:38;26.50;99.90
48488;DHT22;34289;48.572;13.378;2022-08-01T09:48:10;26.60;99.90
48488;DHT22;34289;48.572;13.378;2022-08-01T09:50:46;26.70;99.90
48488;DHT22;34289;48.572;13.378;2022-08-01T09:53:13;27.10;99.70
48488;DHT22;34289;48.572;13.378;2022-08-01T09:55:39;27.00;99.60
48488;DHT22;34289;48.572;13.378;2022-08-01T09:58:05;26.70;99.50
48488;DHT22;34289;48.572;13.378;2022-08-01T10:00:32;26.40;99.90
48488;DHT22;34289;48.572;13.378;2022-08-01T10:02:59;26.40;99.90
48488;DHT22;34289;48.572;13.378;2022-08-01T10:05:33;26.60;99.90
48488;DHT22;34289;48.572;13.378;2022-08-01T10:08:01;27.00;99.90
48488;DHT22;34289;48.572;13.378;2022-08-01T10:10:28;27.10;99.90
48488;DHT22;34289;48.572;13.378;2022-08-01T10:12:56;27.20;99.00
48488;DHT22;34289;48.572;13.378;2022-08-01T10:15:22;27.00;99.60
48488;DHT22;34289;48.572;13.378;2022-08-01T10:18:00;26.90;99.30
48488;DHT22;34289;48.572;13.378;2022-08-01T10:20:33;26.70;99.70
48488;DHT22;34289;48.572;13.378;2022-08-01T10:23:02;26.60;99.90
48488;DHT22;34289;48.572;13.378;2022-08-01T10:25:37;26.60;99.90
48488;DHT22;34289;48.572;13.378;2022-08-01T10:28:13;26.50;99.30
48488;DHT22;34289;48.572;13.378;2022-08-01T10:30:41;26.90;99.90
48488;DHT22;34289;48.572;13.378;2022-08-01T10:33:07;27.20;99.00
48488;DHT22;34289;48.572;13.378;2022-08-01T10:35:34;26.80;99.50
48488;DHT22;34289;48.572;13.378;2022-08-01T10:37:59;26.80;99.20
48488;DHT22;34289;48.572;13.378;2022-08-01T10:40:25;26.80;99.20
48488;DHT22;34289;48.572;13.378;2022-08-01T10:42:53;27.00;99.20
48488;DHT22;34289;48.572;13.378;2022-08-01T10:45:19;27.40;99.70
48488;DHT22;34289;48.572;13.378;2022-08-01T10:47:53;27.80;98.80
48488;DHT22;34289;48.572;13.378;2022-08-01T10:53:10;28.00;98.40
48488;DHT22;34289;48.572;13.378;2022-08-01T10:58:23;27.60;98.80
48488;DHT22;34289;48.572;13.378;2022-08-01T11:04:13;28.10;99.50
48488;DHT22;34289;48.572;13.378;2022-08-01T11:06:41;28.00;98.10
48488;DHT22;34289;48.572;13.378;2022-08-01T11:14:23;28.30;98.00
48488;DHT22;34289;48.572;13.378;2022-08-01T11:16:49;28.50;96.60
48488;DHT22;34289;48.572;13.378;2022-08-01T11:19:17;28.70;97.90
48488;DHT22;34289;48.572;13.378;2022-08-01T11:32:55;21.80;99.90
48488;DHT22;34289;48.572;13.378;2022-08-01T11:35:22;20.80;99.90
48488;DHT22;34289;48.572;13.378;2022-08-01T11:37:54;19.60;99.90
48488;DHT22;34289;48.572;13.378;2022-08-01T11:40:27;19.40;99.90
48488;DHT22;34289;48.572;13.378;2022-08-01T11:48:21;19.60;99.90
48488;DHT22;34289;48.572;13.378;2022-08-01T11:50:47;20.00;99.90
48488;DHT22;34289;48.572;13.378;2022-08-01T11:53:15;20.40;99.90
48488;DHT22;34289;48.572;13.378;2022-08-01T11:55:49;20.60;99.90
48488;DHT22;34289;48.572;13.378;2022-08-01T11:58:19;20.90;99.90
48488;DHT22;34289;48.572;13.378;2022-08-01T12:00:52;21.20;99.90
48488;DHT22;34289;48.572;13.378;2022-08-01T12:03:27;21.60;99.90
48488;DHT22;34289;48.572;13.378;2022-08-01T12:05:54;22.00;99.90
48488;DHT22;34289;48.572;13.378;2022-08-01T12:08:27;22.30;99.90
48488;DHT22;34289;48.572;13.378;2022-08-01T12:10:53;22.70;99.90
48488;DHT22;34289;48.572;13.378;2022-08-01T12:13:19;23.20;99.90
48488;DHT22;34289;48.572;13.378;2022-08-01T12:15:45;23.30;99.90
48488;DHT22;34289;48.572;13.378;2022-08-01T12:18:11;23.20;99.90
48488;DHT22;34289;48.572;13.378;2022-08-01T12:20:43;22.90;99.90
48488;DHT22;34289;48.572;13.378;2022-08-01T12:23:11;22.80;99.90
48488;DHT22;34289;48.572;13.378;2022-08-01T12:25:38;22.90;99.90
48488;DHT22;34289;48.572;13.378;2022-08-01T12:28:10;23.30;99.90
48488;DHT22;34289;48.572;13.378;2022-08-01T12:30:38;24.10;99.90
48488;DHT22;34289;48.572;13.378;2022-08-01T12:33:08;24.80;99.90
48488;DHT22;34289;48.572;13.378;2022-08-01T12:35:36;25.20;99.90
48488;DHT22;34289;48.572;13.378;2022-08-01T12:38:13;25.70;99.90
48488;DHT22;34289;48.572;13.378;2022-08-01T12:40:41;25.80;99.90
48488;DHT22;34289;48.572;13.378;2022-08-01T12:43:08;26.10;99.90
48488;DHT22;34289;48.572;13.378;2022-08-01T12:45:38;26.00;99.90
48488;DHT22;34289;48.572;13.378;2022-08-01T12:48:13;26.10;99.90
48488;DHT22;34289;48.572;13.378;2022-08-01T12:50:48;26.70;99.90
48488;DHT22;34289;48.572;13.378;2022-08-01T12:53:15;27.00;99.90
48488;DHT22;34289;48.572;13.378;2022-08-01T12:55:59;26.70;99.90
48488;DHT22;34289;48.572;13.378;2022-08-01T12:58:31;26.50;99.90
48488;DHT22;34289;48.572;13.378;2022-08-01T13:01:06;26.20;99.90
48488;DHT22;34289;48.572;13.378;2022-08-01T13:03:32;25.20;99.90
48488;DHT22;34289;48.572;13.378;2022-08-01T13:05:58;24.20;99.90
48488;DHT22;34289;48.572;13.378;2022-08-01T13:10:59;23.90;99.90
48488;DHT22;34289;48.572;13.378;2022-08-01T13:13:38;24.00;99.90
48488;DHT22;34289;48.572;13.378;2022-08-01T13:16:05;25.00;99.90
48488;DHT22;34289;48.572;13.378;2022-08-01T13:18:32;26.10;99.90
48488;DHT22;34289;48.572;13.378;2022-08-01T13:21:16;26.80;99.90
48488;DHT22;34289;48.572;13.378;2022-08-01T13:29:08;28.50;99.90
48488;DHT22;34289;48.572;13.378;2022-08-01T13:31:35;28.80;99.90
48488;DHT22;34289;48.572;13.378;2022-08-01T13:34:01;29.10;99.90
48488;DHT22;34289;48.572;13.378;2022-08-01T13:36:27;29.50;99.90
48488;DHT22;34289;48.572;13.378;2022-08-01T13:38:54;29.20;99.90
48488;DHT22;34289;48.572;13.378;2022-08-01T13:41:38;29.60;99.90
48488;DHT22;34289;48.572;13.378;2022-08-01T13:44:04;30.10;99.90
48488;DHT22;34289;48.572;13.378;2022-08-01T13:46:31;29.60;99.90
48488;DHT22;34289;48.572;13.378;2022-08-01T13:48:57;29.50;99.90
48488;DHT22;34289;48.572;13.378;2022-08-01T13:51:22;29.00;99.90
48488;DHT22;34289;48.572;13.378;2022-08-01T13:53:48;29.10;99.90
48488;DHT22;34289;48.572;13.378;2022-08-01T13:56:14;28.90;99.90
48488;DHT22;34289;48.572;13.378;2022-08-01T13:58:41;28.20;99.90
48488;DHT22;34289;48.572;13.378;2022-08-01T14:01:07;27.50;99.90
48488;DHT22;34289;48.572;13.378;2022-08-01T14:03:32;27.40;99.90
48488;DHT22;34289;48.572;13.378;2022-08-01T14:05:58;27.70;99.90
48488;DHT22;34289;48.572;13.378;2022-08-01T14:08:24;27.90;99.90
48488;DHT22;34289;48.572;13.378;2022-08-01T14:10:50;28.00;99.90
48488;DHT22;34289;48.572;13.378;2022-08-01T14:13:17;28.00;99.90
48488;DHT22;34289;48.572;13.378;2022-08-01T14:15:45;27.90;99.90
48488;DHT22;34289;48.572;13.378;2022-08-01T14:18:11;28.60;99.90
48488;DHT22;34289;48.572;13.378;2022-08-01T14:20:38;29.10;99.90
48488;DHT22;34289;48.572;13.378;2022-08-01T14:23:03;29.50;99.90
48488;DHT22;34289;48.572;13.378;2022-08-01T14:25:29;29.90;99.90
48488;DHT22;34289;48.572;13.378;2022-08-01T14:27:55;29.90;99.90
48488;DHT22;34289;48.572;13.378;2022-08-01T14:30:20;30.00;99.90
48488;DHT22;34289;48.572;13.378;2022-08-01T14:32:46;30.90;98.80
48488;DHT22;34289;48.572;13.378;2022-08-01T14:35:12;31.20;97.90
48488;DHT22;34289;48.572;13.378;2022-08-01T14:37:37;31.80;96.60
48488;DHT22;34289;48.572;13.378;2022-08-01T14:40:03;31.70;96.40
48488;DHT22;34289;48.572;13.378;2022-08-01T14:42:33;31.90;94.00
48488;DHT22;34289;48.572;13.378;2022-08-01T14:44:59;31.80;94.50
48488;DHT22;34289;48.572;13.378;2022-08-01T14:47:27;32.40;94.30
48488;DHT22;34289;48.572;13.378;2022-08-01T14:49:53;34.20;92.70
48488;DHT22;34289;48.572;13.378;2022-08-01T14:52:18;34.90;91.30
48488;DHT22;34289;48.572;13.378;2022-08-01T14:54:44;35.10;90.30
48488;DHT22;34289;48.572;13.378;2022-08-01T14:57:10;36.60;87.30
48488;DHT22;34289;48.572;13.378;2022-08-01T14:59:36;37.50;83.10
48488;DHT22;34289;48.572;13.378;2022-08-01T15:02:02;38.40;83.50
48488;DHT22;34289;48.572;13.378;2022-08-01T15:04:27;38.30;77.70
48488;DHT22;34289;48.572;13.378;2022-08-01T15:06:53;37.00;77.00
48488;DHT22;34289;48.572;13.378;2022-08-01T15:09:19;35.40;79.00
48488;DHT22;34289;48.572;13.378;2022-08-01T15:11:44;36.90;76.40
48488;DHT22;34289;48.572;13.378;2022-08-01T15:14:12;37.20;74.80
48488;DHT22;34289;48.572;13.378;2022-08-01T15:16:56;37.20;73.80
48488;DHT22;34289;48.572;13.378;2022-08-01T15:19:22;37.20;73.90
48488;DHT22;34289;48.572;13.378;2022-08-01T15:21:47;36.70;74.00
48488;DHT22;34289;48.572;13.378;2022-08-01T15:24:13;37.10;75.30
48488;DHT22;34289;48.572;13.378;2022-08-01T15:26:38;37.70;68.90
48488;DHT22;34289;48.572;13.378;2022-08-01T15:29:04;36.50;73.30
48488;DHT22;34289;48.572;13.378;2022-08-01T15:31:30;36.20;76.60
48488;DHT22;34289;48.572;13.378;2022-08-01T15:33:56;33.70;76.40
48488;DHT22;34289;48.572;13.378;2022-08-01T15:36:22;33.60;74.90
48488;DHT22;34289;48.572;13.378;2022-08-01T15:38:48;35.00;73.30
48488;DHT22;34289;48.572;13.378;2022-08-01T15:41:13;37.70;74.00
48488;DHT22;34289;48.572;13.378;2022-08-01T15:43:39;40.40;66.40
48488;DHT22;34289;48.572;13.378;2022-08-01T15:46:06;41.30;67.30
48488;DHT22;34289;48.572;13.378;2022-08-01T15:48:31;41.50;63.70
48488;DHT22;34289;48.572;13.378;2022-08-01T15:50:57;41.30;62.60
48488;DHT22;34289;48.572;13.378;2022-08-01T15:53:22;41.50;63.70
48488;DHT22;34289;48.572;13.378;2022-08-01T15:55:48;41.50;61.00
48488;DHT22;34289;48.572;13.378;2022-08-01T15:58:14;43.00;62.20
48488;DHT22;34289;48.572;13.378;2022-08-01T16:00:39;44.10;59.50
48488;DHT22;34289;48.572;13.378;2022-08-01T16:03:06;43.90;58.10
48488;DHT22;34289;48.572;13.378;2022-08-01T16:05:32;44.10;57.40
48488;DHT22;34289;48.572;13.378;2022-08-01T16:07:57;43.90;55.40
48488;DHT22;34289;48.572;13.378;2022-08-01T16:10:23;42.10;55.40
48488;DHT22;34289;48.572;13.378;2022-08-01T16:12:49;38.90;59.30